createdAt,value
2019-04-26T00:01:57.643Z,57.30
2019-04-26T00:04:26.317Z,57.30
2019-04-26T00:06:55.407Z,57.30
2019-04-26T00:09:25.734Z,57.30
2019-04-26T00:12:01.867Z,57.30
2019-04-26T00:14:37.722Z,57.30
2019-04-26T00:17:07.726Z,57.30
2019-04-26T00:19:36.417Z,57.30
2019-04-26T00:22:05.086Z,57.30
2019-04-26T00:24:33.713Z,57.30
2019-04-26T00:27:02.049Z,57.40
2019-04-26T00:29:30.435Z,57.40
2019-04-26T00:31:58.805Z,57.40
2019-04-26T00:34:27.190Z,57.40
2019-04-26T00:36:55.541Z,57.40
2019-04-26T00:39:24.995Z,57.30
2019-04-26T00:41:53.534Z,57.20
2019-04-26T00:44:22.799Z,57.30
2019-04-26T00:46:51.174Z,57.30
2019-04-26T00:49:19.594Z,57.30
2019-04-26T00:51:48.277Z,57.30
2019-04-26T00:54:16.570Z,57.30
2019-04-26T00:56:44.853Z,57.30
2019-04-26T00:59:14.923Z,57.30
2019-04-26T01:01:44.949Z,57.30
2019-04-26T01:04:14.547Z,57.60
2019-04-26T01:06:45.066Z,57.30
2019-04-26T01:09:13.433Z,57.30
2019-04-26T01:11:41.731Z,57.30
2019-04-26T01:14:09.999Z,57.30
2019-04-26T01:16:38.298Z,57.30
2019-04-26T01:19:06.574Z,57.30
2019-04-26T01:21:41.039Z,57.30
2019-04-26T01:24:09.543Z,57.30
2019-04-26T01:26:37.840Z,57.30
2019-04-26T01:29:08.614Z,57.20
2019-04-26T01:31:40.102Z,57.30
2019-04-26T01:34:08.375Z,57.30
2019-04-26T01:36:36.853Z,57.30
2019-04-26T01:39:09.779Z,57.10
2019-04-26T01:41:56.027Z,57.30
2019-04-26T01:44:44.006Z,57.70
2019-04-26T01:47:13.112Z,57.20
2019-04-26T01:49:41.396Z,57.20
2019-04-26T01:52:13.640Z,57.20
2019-04-26T01:54:43.148Z,57.20
2019-04-26T01:57:11.494Z,57.20
2019-04-26T01:59:42.830Z,57.20
2019-04-26T02:02:18.835Z,57.20
2019-04-26T02:04:54.907Z,57.30
2019-04-26T02:07:38.304Z,57.20
2019-04-26T02:10:17.486Z,57.20
2019-04-26T02:12:47.041Z,57.10
2019-04-26T02:15:15.800Z,57.20
2019-04-26T02:17:44.348Z,57.20
2019-04-26T02:20:12.639Z,57.20
2019-04-26T02:22:54.537Z,57.20
2019-04-26T02:25:24.547Z,57.20
2019-04-26T02:27:52.870Z,57.20
2019-04-26T02:30:21.170Z,57.10
2019-04-26T02:32:49.446Z,57.10
2019-04-26T02:35:17.729Z,57.20
2019-04-26T02:37:46.110Z,57.10
2019-04-26T02:40:14.929Z,57.10
2019-04-26T02:42:43.296Z,57.10
2019-04-26T02:45:22.419Z,57.20
2019-04-26T02:47:53.009Z,57.10
2019-04-26T02:50:28.377Z,57.10
2019-04-26T02:53:11.106Z,57.10
2019-04-26T02:56:11.530Z,57.10
2019-04-26T02:58:43.185Z,57.10
2019-04-26T03:01:11.563Z,57.00
2019-04-26T03:03:39.963Z,57.00
2019-04-26T03:06:08.249Z,57.10
2019-04-26T03:08:37.773Z,57.60
2019-04-26T03:11:09.414Z,57.00
2019-04-26T03:13:58.399Z,57.00
2019-04-26T03:16:31.432Z,57.10
2019-04-26T03:19:11.114Z,57.00
2019-04-26T03:21:54.870Z,57.00
2019-04-26T03:24:42.586Z,57.00
2019-04-26T03:27:39.338Z,56.90
2019-04-26T03:30:21.460Z,56.90
2019-04-26T03:32:58.894Z,57.00
2019-04-26T03:35:55.341Z,56.90
2019-04-26T03:38:20.818Z,57.00
2019-04-26T03:41:12.251Z,57.00
2019-04-26T03:43:44.587Z,57.00
2019-04-26T03:46:35.634Z,56.90
2019-04-26T03:49:24.518Z,57.00
2019-04-26T03:52:18.749Z,56.90
2019-04-26T03:54:48.734Z,56.90
2019-04-26T03:57:46.131Z,56.90
2019-04-26T04:00:19.398Z,57.00
2019-04-26T04:05:49.152Z,57.10
2019-04-26T04:08:23.413Z,57.10
2019-04-26T04:11:03.260Z,57.10
2019-04-26T04:13:51.029Z,57.10
2019-04-26T04:16:31.953Z,57.10
2019-04-26T04:19:12.446Z,57.10
2019-04-26T04:22:01.896Z,57.20
2019-04-26T04:24:41.333Z,57.20
2019-04-26T04:27:28.071Z,57.20
2019-04-26T04:30:07.467Z,57.40
2019-04-26T04:32:49.856Z,57.30
2019-04-26T04:35:20.195Z,57.60
2019-04-26T04:38:08.431Z,58.20
2019-04-26T04:40:35.326Z,58.60
2019-04-26T04:43:20.029Z,59.50
2019-04-26T04:45:56.408Z,59.30
2019-04-26T04:49:02.869Z,59.40
2019-04-26T04:51:46.881Z,59.50
2019-04-26T04:54:21.013Z,59.50
2019-04-26T04:57:26.474Z,59.50
2019-04-26T05:00:17.070Z,59.70
2019-04-26T05:02:58.868Z,59.80
2019-04-26T05:05:47.307Z,59.90
2019-04-26T05:08:28.045Z,59.90
2019-04-26T05:11:05.713Z,59.90
2019-04-26T05:13:42.077Z,60.20
2019-04-26T05:16:46.541Z,60.40
2019-04-26T05:19:28.585Z,60.50
2019-04-26T05:22:24.638Z,60.90
2019-04-26T05:25:49.820Z,61.00
2019-04-26T05:28:28.518Z,61.70
2019-04-26T05:31:22.478Z,61.20
2019-04-26T05:34:03.524Z,61.40
2019-04-26T05:36:47.799Z,61.50
2019-04-26T05:39:28.530Z,61.50
2019-04-26T05:42:07.248Z,61.50
2019-04-26T05:44:43.116Z,61.50
2019-04-26T05:47:28.145Z,61.50
2019-04-26T05:50:09.903Z,61.50
2019-04-26T05:53:08.887Z,61.50
2019-04-26T05:56:04.662Z,61.70
2019-04-26T05:58:39.395Z,61.40
2019-04-26T06:01:31.920Z,61.40
2019-04-26T06:04:24.231Z,61.30
2019-04-26T06:07:02.187Z,61.20
2019-04-26T06:09:41.059Z,61.90
2019-04-26T06:12:23.030Z,61.40
2019-04-26T06:14:58.960Z,61.70
2019-04-26T06:17:53.242Z,62.00
2019-04-26T06:20:36.590Z,62.20
2019-04-26T06:23:08.129Z,62.20
2019-04-26T06:25:47.153Z,62.30
2019-04-26T06:28:39.731Z,62.30
2019-04-26T06:31:13.857Z,62.40
2019-04-26T06:33:44.709Z,62.40
2019-04-26T06:36:14.741Z,62.40
2019-04-26T06:38:57.822Z,62.70
2019-04-26T06:41:36.412Z,62.80
2019-04-26T06:44:08.828Z,62.50
2019-04-26T06:47:03.982Z,62.60
2019-04-26T06:49:49.063Z,62.60
2019-04-26T06:52:19.736Z,62.60
2019-04-26T06:55:04.320Z,62.80
2019-04-26T06:58:02.749Z,62.80
2019-04-26T07:00:57.576Z,62.90
2019-04-26T07:03:29.550Z,62.80
2019-04-26T07:06:04.423Z,62.80
2019-04-26T07:08:41.337Z,62.70
2019-04-26T07:11:55.495Z,62.90
2019-04-26T07:14:38.458Z,62.80
2019-04-26T07:17:09.919Z,62.70
2019-04-26T07:20:08.949Z,62.90
2019-04-26T07:23:16.867Z,62.90
2019-04-26T07:26:02.073Z,62.80
2019-04-26T07:28:35.254Z,62.80
2019-04-26T07:31:13.096Z,62.80
2019-04-26T07:33:58.557Z,63.00
2019-04-26T07:36:47.006Z,62.90
2019-04-26T07:39:28.831Z,63.00
2019-04-26T07:42:13.877Z,63.00
2019-04-26T07:45:02.269Z,62.90
2019-04-26T07:47:37.304Z,62.80
2019-04-26T07:50:28.557Z,62.80
2019-04-26T07:53:24.183Z,62.70
2019-04-26T07:56:07.860Z,62.70
2019-04-26T07:59:12.898Z,62.80
2019-04-26T08:01:51.892Z,62.50
2019-04-26T08:04:34.025Z,62.70
2019-04-26T08:07:11.695Z,62.70
2019-04-26T08:09:42.473Z,62.60
2019-04-26T08:12:10.765Z,62.80
2019-04-26T08:14:49.081Z,63.50
2019-04-26T08:17:36.044Z,62.70
2019-04-26T08:20:21.581Z,62.80
2019-04-26T08:22:53.148Z,62.70
2019-04-26T08:25:21.974Z,62.70
2019-04-26T08:27:51.280Z,62.70
2019-04-26T08:30:22.624Z,62.90
2019-04-26T08:32:55.992Z,63.00
2019-04-26T08:35:27.144Z,63.10
2019-04-26T08:37:57.485Z,63.30
2019-04-26T08:40:31.065Z,63.30
2019-04-26T08:42:58.747Z,63.20
2019-04-26T08:45:34.449Z,63.30
2019-04-26T08:48:23.341Z,63.40
2019-04-26T08:50:54.692Z,63.40
2019-04-26T08:53:22.966Z,63.30
2019-04-26T08:55:51.262Z,63.40
2019-04-26T08:58:20.006Z,63.40
2019-04-26T09:00:52.728Z,63.30
2019-04-26T09:03:22.644Z,63.30
2019-04-26T09:05:55.118Z,63.30
2019-04-26T09:08:24.580Z,63.40
2019-04-26T09:10:52.865Z,63.40
2019-04-26T09:13:22.288Z,63.40
2019-04-26T09:15:59.743Z,63.40
2019-04-26T09:18:28.054Z,63.50
2019-04-26T09:20:56.336Z,63.50
2019-04-26T09:23:44.424Z,63.40
2019-04-26T09:26:13.704Z,63.50
2019-04-26T09:28:43.796Z,63.30
2019-04-26T09:31:30.353Z,63.30
2019-04-26T09:34:00.259Z,63.50
2019-04-26T09:36:28.629Z,63.40
2019-04-26T09:38:56.893Z,63.40
2019-04-26T09:41:26.478Z,63.40
2019-04-26T09:43:58.857Z,63.40
2019-04-26T09:46:34.260Z,63.40
2019-04-26T09:49:08.439Z,63.60
2019-04-26T09:51:39.091Z,63.50
2019-04-26T09:54:07.440Z,63.50
2019-04-26T09:56:35.790Z,63.50
2019-04-26T09:59:05.565Z,63.40
2019-04-26T10:01:34.255Z,63.30
2019-04-26T10:04:02.635Z,63.30
2019-04-26T10:06:31.066Z,63.20
2019-04-26T10:08:59.483Z,63.10
2019-04-26T10:11:29.401Z,63.10
2019-04-26T10:13:59.351Z,63.00
2019-04-26T10:16:37.315Z,62.90
2019-04-26T10:19:06.837Z,62.80
2019-04-26T10:21:35.117Z,62.80
2019-04-26T10:24:03.415Z,62.80
2019-04-26T10:26:31.686Z,62.70
2019-04-26T10:28:59.978Z,62.60
2019-04-26T10:31:28.249Z,62.50
2019-04-26T10:33:56.630Z,62.60
2019-04-26T10:36:26.257Z,62.50
2019-04-26T10:38:58.507Z,62.40
2019-04-26T10:41:25.126Z,62.40
2019-04-26T10:43:53.402Z,62.70
2019-04-26T10:46:24.507Z,62.80
2019-04-26T10:48:53.324Z,63.00
2019-04-26T10:51:24.140Z,62.90
2019-04-26T10:53:54.142Z,63.00
2019-04-26T10:56:39.158Z,63.10
2019-04-26T10:59:18.215Z,63.20
2019-04-26T11:01:46.578Z,63.10
2019-04-26T11:04:14.848Z,63.20
2019-04-26T11:06:43.138Z,63.00
2019-04-26T11:09:11.423Z,62.90
2019-04-26T11:11:39.715Z,63.00
2019-04-26T11:14:07.993Z,62.80
2019-04-26T11:16:37.223Z,62.90
2019-04-26T11:19:06.277Z,62.90
2019-04-26T11:21:34.572Z,62.80
2019-04-26T11:24:02.842Z,62.80
2019-04-26T11:26:34.619Z,62.70
2019-04-26T11:29:01.141Z,62.80
2019-04-26T11:31:29.426Z,62.80
2019-04-26T11:34:05.174Z,62.90
2019-04-26T11:36:27.764Z,62.90
2019-04-26T11:38:56.095Z,62.90
2019-04-26T11:41:24.461Z,62.90
2019-04-26T11:43:54.382Z,61.90
2019-04-26T11:46:29.226Z,62.70
2019-04-26T11:48:58.916Z,62.80
2019-04-26T11:51:23.588Z,62.70
2019-04-26T11:53:52.783Z,62.60
2019-04-26T11:56:21.056Z,62.50
2019-04-26T11:58:52.447Z,62.30
2019-04-26T12:01:20.976Z,62.10
2019-04-26T12:04:07.302Z,61.90
2019-04-26T12:06:37.367Z,61.80
2019-04-26T12:09:08.267Z,61.50
2019-04-26T12:11:48.775Z,61.40
2019-04-26T12:14:19.408Z,61.40
2019-04-26T12:16:47.159Z,61.20
2019-04-26T12:19:06.565Z,61.20
2019-04-26T12:21:35.123Z,61.30
2019-04-26T12:24:03.601Z,61.30
2019-04-26T12:26:42.293Z,61.20
2019-04-26T12:29:01.923Z,61.10
2019-04-26T12:31:30.217Z,61.00
2019-04-26T12:33:58.566Z,60.60
2019-04-26T12:36:26.866Z,60.40
2019-04-26T12:38:58.280Z,60.30
2019-04-26T12:41:39.432Z,60.30
2019-04-26T12:43:59.599Z,60.20
2019-04-26T12:46:29.041Z,59.90
2019-04-26T12:48:57.656Z,59.70
2019-04-26T12:51:26.062Z,59.60
2019-04-26T12:53:54.338Z,59.40
2019-04-26T12:56:26.473Z,59.30
2019-04-26T12:58:52.652Z,59.00
2019-04-26T13:01:20.946Z,58.70
2019-04-26T13:04:03.646Z,58.50
2019-04-26T13:06:33.520Z,58.30
2019-04-26T13:09:01.953Z,58.20
2019-04-26T13:11:48.558Z,58.10
2019-04-26T13:14:09.746Z,58.00
2019-04-26T13:16:39.665Z,57.80
2019-04-26T13:19:08.022Z,57.80
2019-04-26T13:21:37.397Z,57.50
2019-04-26T13:24:06.347Z,56.90
2019-04-26T13:26:36.105Z,57.00
2019-04-26T13:29:04.726Z,56.80
2019-04-26T13:31:35.466Z,56.60
2019-04-26T13:34:04.445Z,56.50
2019-04-26T13:36:33.058Z,56.30
2019-04-26T13:39:01.351Z,55.90
2019-04-26T13:41:29.699Z,55.90
2019-04-26T13:44:00.924Z,56.00
2019-04-26T13:46:35.690Z,56.00
2019-04-26T13:49:05.626Z,55.80
2019-04-26T13:51:35.170Z,55.70
2019-04-26T13:54:03.438Z,55.40
2019-04-26T13:56:32.095Z,55.30
2019-04-26T13:59:01.744Z,55.20
2019-04-26T14:01:30.146Z,55.10
2019-04-26T14:03:58.560Z,54.80
2019-04-26T14:06:26.982Z,54.50
2019-04-26T14:08:58.225Z,54.30
2019-04-26T14:11:28.099Z,54.00
2019-04-26T14:13:59.859Z,53.80
2019-04-26T14:16:27.535Z,53.50
2019-04-26T14:18:55.605Z,53.00
2019-04-26T14:21:23.991Z,52.50
2019-04-26T14:24:10.544Z,52.70
2019-04-26T14:26:41.558Z,51.90
2019-04-26T14:29:09.922Z,51.70
2019-04-26T14:31:38.235Z,51.50
2019-04-26T14:34:07.086Z,51.40
2019-04-26T14:36:35.503Z,51.30
2019-04-26T14:39:06.430Z,51.20
2019-04-26T14:41:34.943Z,51.40
2019-04-26T14:44:14.659Z,51.60
2019-04-26T14:46:33.402Z,51.50
2019-04-26T14:49:05.490Z,51.50
2019-04-26T14:51:31.773Z,51.50
2019-04-26T14:54:00.120Z,51.60
2019-04-26T14:56:29.225Z,51.90
2019-04-26T14:59:01.759Z,51.60
2019-04-26T15:01:35.975Z,52.20
2019-04-26T15:04:23.241Z,52.40
2019-04-26T15:06:57.976Z,52.50
2019-04-26T15:09:29.789Z,52.70
2019-04-26T15:11:58.603Z,52.80
2019-04-26T15:14:23.240Z,52.90
2019-04-26T15:16:51.573Z,53.10
2019-04-26T15:19:19.938Z,53.20
2019-04-26T15:21:48.236Z,53.30
2019-04-26T15:24:16.791Z,53.40
2019-04-26T15:26:45.162Z,53.30
2019-04-26T15:29:13.445Z,53.50
2019-04-26T15:31:41.736Z,53.60
2019-04-26T15:34:10.034Z,53.70
2019-04-26T15:36:38.342Z,53.70
2019-04-26T15:39:08.862Z,54.30
2019-04-26T15:41:38.800Z,54.00
2019-04-26T15:44:24.842Z,54.20
2019-04-26T15:46:55.411Z,54.30
2019-04-26T15:49:35.920Z,54.60
2019-04-26T15:52:01.466Z,54.70
2019-04-26T15:54:29.742Z,54.80
2019-04-26T15:56:58.101Z,55.00
2019-04-26T15:59:26.446Z,55.20
2019-04-26T16:01:56.256Z,55.40
2019-04-26T16:04:24.888Z,55.80
2019-04-26T16:06:53.236Z,55.80
2019-04-26T16:09:22.947Z,56.30
2019-04-26T16:11:53.111Z,56.70
2019-04-26T16:14:24.858Z,57.00
2019-04-26T16:16:52.485Z,57.20
2019-04-26T16:19:20.979Z,57.60
2019-04-26T16:21:52.776Z,57.70
2019-04-26T16:24:19.259Z,58.00
2019-04-26T16:26:53.612Z,58.20
2019-04-26T16:29:24.138Z,58.00
2019-04-26T16:32:05.699Z,58.60
2019-04-26T16:34:41.748Z,58.80
2019-04-26T16:37:09.881Z,59.20
2019-04-26T16:39:39.975Z,59.00
2019-04-26T16:42:08.523Z,58.50
2019-04-26T16:44:36.891Z,58.20
2019-04-26T16:47:05.933Z,57.80
2019-04-26T16:49:41.696Z,57.60
2019-04-26T16:52:07.094Z,57.30
2019-04-26T16:54:34.714Z,57.10
2019-04-26T16:57:06.541Z,56.90
2019-04-26T16:59:34.573Z,56.60
2019-04-26T17:02:02.960Z,56.50
2019-04-26T17:04:35.093Z,56.30
2019-04-26T17:07:02.944Z,56.20
2019-04-26T17:09:54.855Z,56.20
2019-04-26T17:12:02.538Z,56.00
2019-04-26T17:14:33.905Z,55.80
2019-04-26T17:17:02.977Z,55.90
2019-04-26T17:19:34.285Z,55.70
2019-04-26T17:22:14.147Z,55.60
2019-04-26T17:24:59.727Z,55.60
2019-04-26T17:27:28.173Z,55.50
2019-04-26T17:29:56.472Z,55.50
2019-04-26T17:32:24.836Z,55.50
2019-04-26T17:34:54.594Z,55.50
2019-04-26T17:37:26.298Z,55.30
2019-04-26T17:39:55.385Z,55.30
2019-04-26T17:42:25.304Z,55.30
2019-04-26T17:44:53.438Z,55.40
2019-04-26T17:47:21.785Z,55.60
2019-04-26T17:49:52.128Z,55.50
2019-04-26T17:52:20.437Z,55.50
2019-04-26T17:54:49.669Z,55.50
2019-04-26T17:57:32.129Z,55.50
2019-04-26T17:59:49.608Z,55.60
2019-04-26T18:02:38.749Z,55.70
2019-04-26T18:05:00.199Z,55.80
2019-04-26T18:07:38.736Z,55.80
2019-04-26T18:09:50.708Z,55.90
2019-04-26T18:12:20.469Z,55.80
2019-04-26T18:14:49.018Z,55.80
2019-04-26T18:17:27.803Z,55.80
2019-04-26T18:20:00.686Z,55.80
2019-04-26T18:22:34.561Z,55.70
2019-04-26T18:24:59.366Z,55.80
2019-04-26T18:27:29.975Z,55.80
2019-04-26T18:29:59.778Z,55.90
2019-04-26T18:32:27.692Z,56.00
2019-04-26T18:34:56.066Z,56.00
2019-04-26T18:37:24.406Z,56.10
2019-04-26T18:39:53.482Z,56.10
2019-04-26T18:42:21.857Z,56.20
2019-04-26T18:44:50.298Z,56.20
2019-04-26T18:47:27.538Z,56.30
2019-04-26T18:49:58.134Z,56.40
2019-04-26T18:52:26.219Z,56.40
2019-04-26T18:54:58.107Z,56.60
2019-04-26T18:57:26.537Z,56.70
2019-04-26T18:59:54.967Z,56.80
2019-04-26T19:02:25.060Z,56.80
2019-04-26T19:04:53.359Z,56.90
2019-04-26T19:07:32.062Z,57.60
2019-04-26T19:10:02.828Z,57.10
2019-04-26T19:12:23.405Z,57.10
2019-04-26T19:15:09.232Z,57.20
2019-04-26T19:17:39.221Z,57.30
2019-04-26T19:20:09.138Z,57.90
2019-04-26T19:22:37.810Z,57.60
2019-04-26T19:25:18.792Z,57.60
2019-04-26T19:27:47.421Z,57.50
2019-04-26T19:30:09.158Z,57.50
2019-04-26T19:32:39.666Z,57.60
2019-04-26T19:35:08.374Z,57.60
2019-04-26T19:37:37.973Z,57.80
2019-04-26T19:40:08.979Z,57.80
2019-04-26T19:42:37.010Z,57.90
2019-04-26T19:45:13.636Z,57.80
2019-04-26T19:47:57.004Z,57.80
2019-04-26T19:50:33.046Z,57.90
2019-04-26T19:53:03.012Z,57.80
2019-04-26T19:55:51.504Z,57.80
2019-04-26T19:58:24.560Z,57.80
2019-04-26T20:00:53.121Z,57.90
2019-04-26T20:03:21.418Z,58.00
2019-04-26T20:05:49.757Z,57.50
2019-04-26T20:08:18.050Z,58.00
2019-04-26T20:10:46.322Z,58.10
2019-04-26T20:13:16.264Z,58.10
2019-04-26T20:15:44.697Z,58.10
2019-04-26T20:18:12.980Z,58.10
2019-04-26T20:20:41.508Z,58.10
2019-04-26T20:23:09.894Z,58.20
2019-04-26T20:25:38.261Z,58.40
2019-04-26T20:28:06.533Z,58.40
2019-04-26T20:30:36.463Z,58.50
2019-04-26T20:33:04.820Z,58.50
2019-04-26T20:35:33.099Z,58.50
2019-04-26T20:38:04.623Z,58.50
2019-04-26T20:40:31.392Z,58.80
2019-04-26T20:43:03.385Z,58.40
2019-04-26T20:45:39.721Z,58.40
2019-04-26T20:47:59.670Z,58.40
2019-04-26T20:50:28.485Z,58.50
2019-04-26T20:53:00.603Z,58.70
2019-04-26T20:55:30.486Z,58.70
2019-04-26T20:57:59.863Z,58.70
2019-04-26T21:00:28.092Z,58.60
2019-04-26T21:03:01.578Z,58.60
2019-04-26T21:05:26.439Z,58.50
2019-04-26T21:07:54.733Z,58.60
2019-04-26T21:10:25.688Z,58.50
2019-04-26T21:12:54.959Z,58.50
2019-04-26T21:15:24.195Z,58.50
2019-04-26T21:17:52.637Z,58.50
2019-04-26T21:20:21.547Z,58.40
2019-04-26T21:22:50.083Z,58.30
2019-04-26T21:25:21.536Z,58.30
2019-04-26T21:28:11.462Z,58.30
2019-04-26T21:30:57.908Z,58.30
2019-04-26T21:33:28.689Z,58.80
2019-04-26T21:36:14.432Z,58.20
2019-04-26T21:38:44.526Z,58.20
2019-04-26T21:41:17.358Z,58.20
2019-04-26T21:43:45.816Z,58.20
2019-04-26T21:46:18.465Z,58.10
2019-04-26T21:48:44.678Z,58.10
2019-04-26T21:51:16.143Z,58.10
2019-04-26T21:53:45.142Z,58.20
2019-04-26T21:56:14.737Z,58.10
2019-04-26T21:58:43.632Z,58.10
2019-04-26T22:01:15.720Z,58.20
2019-04-26T22:03:53.268Z,58.20
2019-04-26T22:06:14.672Z,58.30
2019-04-26T22:08:47.389Z,58.20
2019-04-26T22:11:19.820Z,58.20
2019-04-26T22:13:47.333Z,58.30
2019-04-26T22:16:31.942Z,58.40
2019-04-26T22:18:56.760Z,58.40
2019-04-26T22:21:28.822Z,58.40
2019-04-26T22:24:01.272Z,58.40
2019-04-26T22:26:29.558Z,58.90
2019-04-26T22:29:00.163Z,58.30
2019-04-26T22:31:27.935Z,58.30
2019-04-26T22:33:56.215Z,58.30
2019-04-26T22:36:27.329Z,58.30
2019-04-26T22:38:57.182Z,58.30
2019-04-26T22:41:24.544Z,58.30
2019-04-26T22:44:03.778Z,58.30
2019-04-26T22:46:50.462Z,58.30
2019-04-26T22:49:19.208Z,58.20
2019-04-26T22:51:47.481Z,58.20
2019-04-26T22:54:15.839Z,58.30
2019-04-26T22:56:46.051Z,58.20
2019-04-26T22:59:14.131Z,58.20
2019-04-26T23:01:44.749Z,58.20
2019-04-26T23:04:16.351Z,58.20
2019-04-26T23:06:42.579Z,58.20
2019-04-26T23:09:16.937Z,58.20
2019-04-26T23:11:46.649Z,58.10
2019-04-26T23:14:18.820Z,58.20
2019-04-26T23:17:04.174Z,57.60
2019-04-26T23:19:27.905Z,58.00
2019-04-26T23:22:00.043Z,58.00
2019-04-26T23:24:28.347Z,58.20
2019-04-26T23:26:56.633Z,58.00
2019-04-26T23:29:24.988Z,57.60
2019-04-26T23:31:55.376Z,58.00
2019-04-26T23:34:25.270Z,58.00
2019-04-26T23:36:53.934Z,57.90
2019-04-26T23:39:24.462Z,57.90
2019-04-26T23:41:53.949Z,57.90
2019-04-26T23:44:23.198Z,57.80
2019-04-26T23:46:54.879Z,57.80
2019-04-26T23:49:23.258Z,58.30
2019-04-26T23:51:53.239Z,57.40
2019-04-26T23:54:21.719Z,57.80
2019-04-26T23:56:50.022Z,57.80
2019-04-26T23:59:20.869Z,57.70
